KLUA Airport Information

Runway Information
Airport Frequencies
Airport Navaids
Airport Weather Information & NOTAM
ADDS - METARS form results

(0142 UTC 02 December 2021)
Data provider http://aviationweather.gov/metar/data/
 
METAR text: KLUA 020135Z AUTO 22010KT 10SM -RA OVC070 10/01 A3003 RMK AO2
Conditions at: KLUA (LURAY , VA, US) observed 0135 UTC 02 December 2021
Temperature: 10.0°C (50°F)
Dewpoint: 1.0°C (34°F) [RH = 53%]
Pressure (altimeter): 30.03 inches Hg (1017.0 mb)
Winds: from the SW (220 degrees) at 12 MPH (10 knots; 5.1 m/s)
Visibility: 10 or more miles (16+ km)
Ceiling: 7000 feet AGL
Clouds: overcast cloud deck at 7000 feet AGL
Weather: -RA  (light rain)

METAR text: KLUA 020115Z AUTO 22008KT 10SM -RA OVC070 10/00 A3004 RMK AO2
Conditions at: KLUA (LURAY , VA, US) observed 0115 UTC 02 December 2021
Temperature: 10.0°C (50°F)
Dewpoint: 0.0°C (32°F) [RH = 50%]
Pressure (altimeter): 30.04 inches Hg (1017.4 mb)
Winds: from the SW (220 degrees) at 9 MPH (8 knots; 4.1 m/s)
Visibility: 10 or more miles (16+ km)
Ceiling: 7000 feet AGL
Clouds: overcast cloud deck at 7000 feet AGL
Weather: -RA  (light rain)

METAR text: KLUA 020055Z AUTO 22007KT 10SM OVC090 10/00 A3004 RMK AO2
Conditions at: KLUA (LURAY , VA, US) observed 0055 UTC 02 December 2021
Temperature: 10.0°C (50°F)
Dewpoint: 0.0°C (32°F) [RH = 50%]
Pressure (altimeter): 30.04 inches Hg (1017.4 mb)
Winds: from the SW (220 degrees) at 8 MPH (7 knots; 3.6 m/s)
Visibility: 10 or more miles (16+ km)
Ceiling: 9000 feet AGL
Clouds: overcast cloud deck at 9000 feet AGL
Weather: automated observation with no human augmentation;
there may or may not be significant weather present at this time